Time;durP1;ratioP1;P1;durP2;ratioP2;P2;SDS_P1;SDS_P2;PMS_P1;PMS_P2;Temp;Humidity;BMP_temperature;BMP_pressure;BME280_temperature;BME280_humidity;BME280_pressure;Samples;Min_cycle;Max_cycle;Signal;HPM_P1;HPM_P2
2022/06/07 00:00:49;;;;;;;0.50;0.50;;;18.90;67.50;;;19.34;51.45;94868.88;4699915;30;20238;-79
2022/06/07 00:03:17;;;;;;;0.50;0.50;;;18.80;67.40;;;19.36;51.10;94874.75;4699206;30;20299;-80
2022/06/07 00:05:45;;;;;;;0.50;0.50;;;18.90;67.70;;;19.38;51.49;94866.53;4702096;30;20232;-80
2022/06/07 00:08:16;;;;;;;0.40;0.40;;;19.00;67.80;;;19.43;51.10;94866.59;4685432;30;20551;-80
2022/06/07 00:10:46;;;;;;;0.40;0.40;;;19.00;67.80;;;19.44;51.27;94866.31;4700141;30;20239;-79
2022/06/07 00:13:14;;;;;;;0.40;0.40;;;18.90;67.80;;;19.47;51.42;94863.19;4686168;30;20223;-79
2022/06/07 00:15:42;;;;;;;0.40;0.40;;;19.00;68.00;;;19.50;51.79;94861.88;4709229;30;20726;-80
2022/06/07 00:18:11;;;;;;;0.50;0.50;;;19.00;68.00;;;19.52;51.47;94852.59;4702357;30;20200;-80
2022/06/07 00:20:40;;;;;;;0.43;0.43;;;19.10;68.20;;;19.56;51.53;94855.56;4685260;30;20240;-80
2022/06/07 00:23:13;;;;;;;0.52;0.52;;;19.10;68.20;;;19.58;52.07;94853.47;4670418;30;20668;-79
2022/06/07 00:25:42;;;;;;;0.40;0.40;;;19.10;68.60;;;19.57;52.28;94854.50;4702058;30;20656;-80
2022/06/07 00:28:10;;;;;;;0.45;0.45;;;19.10;68.40;;;19.64;52.14;94843.66;4716989;30;20204;-79
2022/06/07 00:30:37;;;;;;;0.50;0.50;;;19.20;68.40;;;19.65;51.87;94845.28;4702588;30;20711;-80
2022/06/07 00:33:06;;;;;;;0.50;0.50;;;19.20;68.40;;;19.69;52.18;94841.06;4716849;30;20200;-79
2022/06/07 00:35:33;;;;;;;0.40;0.40;;;19.20;68.40;;;19.72;52.27;94845.88;4713281;30;20243;-80
2022/06/07 00:38:00;;;;;;;0.47;0.47;;;19.30;68.60;;;19.75;51.90;94840.06;4685086;30;20671;-80
2022/06/07 00:40:27;;;;;;;0.52;0.52;;;19.30;69.50;;;19.75;51.90;94844.56;4685129;30;20232;-79
2022/06/07 00:42:55;;;;;;;0.40;0.40;;;19.30;68.60;;;19.76;52.26;94844.34;4698164;30;20223;-79
2022/06/07 00:45:26;;;;;;;0.50;0.50;;;19.40;68.60;;;19.76;52.37;94840.84;4711499;30;20239;-78
2022/06/07 00:47:54;;;;;;;0.43;0.43;;;19.30;68.50;;;19.76;52.36;94846.19;4699288;30;20208;-78
2022/06/07 00:50:26;;;;;;;0.50;0.50;;;19.40;68.60;;;19.77;52.70;94832.63;4713308;30;20719;-78
2022/06/07 00:52:53;;;;;;;0.40;0.40;;;19.30;69.20;;;19.78;52.77;94826.25;4701973;30;20208;-78
2022/06/07 00:55:21;;;;;;;0.40;0.40;;;19.30;68.60;;;19.76;52.61;94817.72;4716503;30;20231;-79
2022/06/07 00:57:52;;;;;;;0.50;0.50;;;19.40;68.80;;;19.78;52.78;94818.25;4716153;30;20210;-78
2022/06/07 01:00:32;;;;;;;0.50;0.50;;;19.40;68.80;;;19.79;52.58;94825.19;4716530;30;20589;-79
2022/06/07 01:03:00;;;;;;;0.40;0.40;;;19.40;68.80;;;19.79;52.39;94819.06;4727054;30;20293;-79
2022/06/07 01:05:28;;;;;;;0.50;0.50;;;19.50;68.90;;;19.78;52.54;94822.78;4690184;30;20603;-79
2022/06/07 01:10:53;;;;;;;0.50;0.50;;;19.40;68.90;;;19.74;53.00;94816.34;4714540;30;20251;-80
2022/06/07 01:13:31;;;;;;;0.50;0.50;;;19.40;69.20;;;19.73;53.25;94822.75;4714210;30;20575;-79
2022/06/07 01:16:08;;;;;;;0.40;0.40;;;19.50;69.50;;;19.73;52.85;94822.75;4687092;30;20262;-79
2022/06/07 01:18:40;;;;;;;0.50;0.50;;;19.40;69.40;;;19.71;53.22;94819.53;4698470;30;20207;-79
2022/06/07 01:21:30;;;;;;;0.40;0.40;;;19.30;69.10;;;19.74;52.72;94821.66;4714752;30;20311;-78
2022/06/07 01:23:59;;;;;;;0.50;0.50;;;19.30;69.70;;;19.76;52.88;94815.06;4690244;30;20307;-78
2022/06/07 01:26:34;;;;;;;0.50;0.50;;;19.40;69.30;;;19.80;53.01;94823.34;4714661;30;20294;-79
2022/06/07 01:29:04;;;;;;;0.40;0.40;;;19.40;69.40;;;19.79;53.10;94813.75;4698541;30;20216;-78
2022/06/07 01:31:32;;;;;;;0.50;0.50;;;19.40;69.40;;;19.80;53.27;94813.50;4686971;30;20610;-78
2022/06/07 01:34:00;;;;;;;0.40;0.40;;;19.40;69.40;;;19.78;52.99;94807.59;4698116;30;20227;-78
2022/06/07 01:36:28;;;;;;;0.40;0.40;;;19.50;69.50;;;19.77;53.20;94802.56;4684278;30;20212;-78
2022/06/07 01:41:54;;;;;;;0.45;0.45;;;19.40;69.40;;;19.71;52.85;94795.56;4701049;30;20216;-80
2022/06/07 01:44:27;;;;;;;0.50;0.50;;;19.40;69.30;;;19.67;53.56;94792.63;4694236;30;20899;-79
2022/06/07 01:46:59;;;;;;;0.40;0.40;;;19.40;69.70;;;19.63;53.68;94792.31;4702725;30;20691;-80
2022/06/07 01:49:28;;;;;;;0.50;0.50;;;19.30;69.60;;;19.61;53.55;94796.28;4683744;30;20228;-79
2022/06/07 01:51:56;;;;;;;0.40;0.40;;;19.30;69.40;;;19.60;53.39;94800.00;4711545;30;20730;-78
2022/06/07 01:54:24;;;;;;;0.40;0.40;;;19.30;69.60;;;19.52;53.38;94790.63;4692840;30;20240;-79
2022/06/07 01:56:52;;;;;;;0.40;0.40;;;19.20;69.50;;;19.53;53.21;94797.56;4701275;30;20273;-80
2022/06/07 01:59:20;;;;;;;0.50;0.50;;;19.30;69.70;;;19.52;53.68;94796.72;4715560;30;20227;-80
2022/06/07 02:01:49;;;;;;;0.50;0.50;;;19.20;69.70;;;19.55;53.69;94797.28;4715319;30;20215;-79
2022/06/07 02:04:16;;;;;;;0.43;0.43;;;19.30;70.00;;;19.53;53.76;94794.88;4682500;30;20274;-80
2022/06/07 02:06:44;;;;;;;0.55;0.55;;;19.30;70.00;;;19.51;53.94;94792.47;4698211;30;20220;-78
2022/06/07 02:09:17;;;;;;;0.40;0.40;;;19.20;69.90;;;19.49;53.73;94783.94;4684558;30;20247;-79
2022/06/07 02:11:45;;;;;;;0.40;0.40;;;19.20;70.00;;;19.48;54.22;94778.84;4697884;30;20290;-79
2022/06/07 02:14:13;;;;;;;0.40;0.40;;;19.20;70.90;;;19.47;54.23;94779.91;4683425;30;20243;-80
2022/06/07 02:16:41;;;;;;;0.40;0.40;;;19.10;70.00;;;19.44;54.19;94775.09;4698269;30;20204;-79
2022/06/07 02:19:08;;;;;;;0.40;0.40;;;19.20;70.10;;;19.43;54.54;94776.97;4697914;30;20200;-78
2022/06/07 02:21:40;;;;;;;0.60;0.60;;;19.10;70.10;;;19.42;54.57;94778.03;4670040;30;20223;-79
2022/06/07 02:24:09;;;;;;;0.45;0.45;;;19.10;70.10;;;19.42;54.18;94783.34;4713936;30;20679;-78
2022/06/07 02:26:41;;;;;;;0.43;0.43;;;19.10;70.10;;;19.41;54.17;94778.25;4684077;30;20219;-79
2022/06/07 02:29:14;;;;;;;0.50;0.50;;;19.10;70.50;;;19.42;54.10;94772.69;4687410;30;20212;-78
2022/06/07 02:31:48;;;;;;;0.43;0.43;;;19.10;70.70;;;19.41;54.01;94771.09;4688579;30;20254;-79
2022/06/07 02:34:18;;;;;;;0.40;0.40;;;19.10;70.60;;;19.43;54.24;94770.84;4701011;30;20244;-79
2022/06/07 02:36:51;;;;;;;0.47;0.47;;;19.10;70.30;;;19.42;54.08;94766.56;4701937;30;20292;-79
2022/06/07 02:39:19;;;;;;;0.47;0.47;;;19.10;70.60;;;19.42;54.05;94763.91;4701359;30;20255;-79
2022/06/07 02:41:48;;;;;;;0.50;0.50;;;19.00;70.20;;;19.41;54.03;94763.13;4685911;30;20216;-80
2022/06/07 02:44:16;;;;;;;0.30;0.30;;;19.10;70.60;;;19.41;54.54;94765.78;4686902;30;20239;-80
2022/06/07 02:46:44;;;;;;;0.50;0.50;;;19.00;70.50;;;19.40;54.25;94760.72;4673151;30;20303;-79
2022/06/07 02:49:12;;;;;;;0.50;0.50;;;19.00;70.50;;;19.39;54.49;94759.88;4715265;30;20260;-80
2022/06/07 02:51:42;;;;;;;0.45;0.45;;;19.10;70.60;;;19.42;54.67;94766.56;4716546;30;20298;-79
2022/06/07 02:54:10;;;;;;;0.50;0.50;;;19.00;71.50;;;19.42;54.38;94763.91;4703131;30;20293;-80
2022/06/07 02:56:38;;;;;;;0.47;0.47;;;19.10;70.60;;;19.41;54.75;94763.13;4718367;30;20238;-80
2022/06/07 02:59:05;;;;;;;0.40;0.40;;;19.00;70.50;;;19.40;54.34;94763.38;4718379;30;20230;-78
2022/06/07 03:01:33;;;;;;;0.50;0.50;;;19.00;70.50;;;19.39;54.98;94765.22;4703165;30;20267;-79
2022/06/07 03:04:02;;;;;;;0.60;0.60;;;19.10;70.80;;;19.38;54.89;94766.25;4729565;30;20204;-78
2022/06/07 03:06:33;;;;;;;0.60;0.60;;;19.10;70.70;;;19.40;54.69;94768.69;4714926;30;20553;-79
2022/06/07 03:09:01;;;;;;;0.50;0.50;;;19.10;70.70;;;19.41;55.03;94776.41;4700616;30;20235;-79
2022/06/07 03:11:29;;;;;;;0.50;0.50;;;19.10;70.80;;;19.41;55.13;94773.75;4709539;30;20774;-79
2022/06/07 03:13:58;;;;;;;0.40;0.40;;;19.10;70.90;;;19.44;55.05;94767.91;4700797;30;20743;-79
2022/06/07 03:16:28;;;;;;;0.50;0.50;;;19.10;71.00;;;19.46;55.05;94768.47;4687412;30;20207;-80
2022/06/07 03:19:00;;;;;;;0.43;0.43;;;19.20;71.10;;;19.43;55.26;94763.66;4702053;30;20690;-78
2022/06/07 03:21:31;;;;;;;0.60;0.60;;;19.10;71.10;;;19.45;55.14;94766.06;4688515;30;20226;-79
2022/06/07 03:23:58;;;;;;;0.40;0.40;;;19.10;71.10;;;19.44;55.03;94756.47;4700545;30;20247;-79
2022/06/07 03:26:26;;;;;;;0.60;0.60;;;19.30;71.10;;;19.44;55.21;94748.50;4700614;30;20288;-79
2022/06/07 03:29:04;;;;;;;0.50;0.50;;;19.10;71.00;;;19.39;55.09;94751.91;4700470;30;20301;-78
2022/06/07 03:31:33;;;;;;;0.47;0.47;;;19.20;71.10;;;19.39;55.67;94749.25;4705319;30;20310;-79
2022/06/07 03:34:04;;;;;;;0.40;0.40;;;19.10;71.00;;;19.34;55.81;94752.66;4687920;30;20231;-79
2022/06/07 03:36:37;;;;;;;0.43;0.43;;;19.10;71.30;;;19.29;56.33;94743.84;4695663;30;20232;-79
2022/06/07 03:39:08;;;;;;;0.40;0.40;;;19.10;71.30;;;19.29;55.88;94746.50;4689948;30;20219;-79
2022/06/07 03:41:45;;;;;;;0.47;0.47;;;19.20;71.40;;;19.26;56.13;94747.00;4687077;30;20285;-80
2022/06/07 03:44:18;;;;;;;0.45;0.45;;;19.10;71.40;;;19.29;55.75;94751.81;4713882;30;20259;-80
2022/06/07 03:46:53;;;;;;;0.47;0.47;;;19.10;71.40;;;19.30;55.71;94750.78;4714046;30;20319;-79
2022/06/07 03:49:21;;;;;;;0.40;0.40;;;19.10;71.40;;;19.33;55.43;94756.41;4712549;30;20228;-78
2022/06/07 03:51:51;;;;;;;0.40;0.40;;;19.10;71.60;;;19.36;55.46;94753.22;4699991;30;20248;-80
2022/06/07 03:54:19;;;;;;;0.40;0.40;;;19.10;71.60;;;19.41;55.88;94751.66;4682941;30;20243;-79
2022/06/07 03:56:49;;;;;;;0.45;0.45;;;19.00;71.50;;;19.44;55.70;94764.47;4686562;30;20232;-79
2022/06/07 03:59:18;;;;;;;0.40;0.40;;;19.20;71.70;;;19.46;56.04;94755.19;4701170;30;20334;-79
2022/06/07 04:01:46;;;;;;;0.45;0.45;;;19.10;71.80;;;19.48;55.79;94750.41;4708282;30;20271;-80
2022/06/07 04:04:13;;;;;;;0.40;0.40;;;19.10;71.90;;;19.53;55.84;94749.66;4673785;30;20263;-80
2022/06/07 04:08:10;;;;;;;0.50;0.50;;;19.20;71.90;;;19.55;56.07;94752.06;4684036;30;20223;-81
2022/06/07 04:09:41;;;;;;;0.40;0.40;;;19.20;71.90;;;19.57;55.87;94755.28;4689469;30;20617;-81
2022/06/07 04:12:17;;;;;;;0.47;0.47;;;19.20;71.70;;;19.56;55.58;94741.16;4729625;30;20249;-80
2022/06/07 04:14:46;;;;;;;0.40;0.40;;;19.20;71.80;;;19.57;55.68;94742.78;4715140;30;20326;-80
2022/06/07 04:17:14;;;;;;;0.50;0.50;;;19.30;72.00;;;19.58;55.68;94747.03;4730006;30;20208;-81
2022/06/07 04:19:46;;;;;;;0.40;0.40;;;19.30;72.10;;;19.59;55.60;94746.00;4714911;30;20268;-81
2022/06/07 04:22:14;;;;;;;0.47;0.47;;;19.30;72.00;;;19.58;56.06;94743.56;4685469;30;20551;-79
2022/06/07 04:24:47;;;;;;;0.40;0.40;;;19.40;72.10;;;19.58;56.05;94740.91;4686291;30;20235;-80
2022/06/07 04:27:18;;;;;;;0.40;0.40;;;19.30;72.00;;;19.58;56.26;94747.03;4688673;30;20243;-81
2022/06/07 04:29:51;;;;;;;0.40;0.40;;;19.30;72.10;;;19.64;55.98;94747.88;4711170;30;20733;-80
2022/06/07 04:32:20;;;;;;;0.40;0.40;;;19.30;71.90;;;19.66;56.00;94743.13;4716644;30;20722;-81
2022/06/07 04:34:50;;;;;;;0.50;0.50;;;19.40;71.80;;;19.72;55.98;94735.97;4717155;30;20223;-82
2022/06/07 04:37:19;;;;;;;0.50;0.50;;;19.40;71.90;;;19.81;56.54;94737.09;4714870;30;20234;-82
2022/06/07 04:39:48;;;;;;;0.50;0.50;;;19.50;72.00;;;19.90;56.00;94737.50;4716513;30;20235;-80
2022/06/07 04:42:16;;;;;;;0.50;0.50;;;19.50;72.00;;;20.03;56.04;94741.56;4716887;30;20212;-81
2022/06/07 04:44:53;;;;;;;0.52;0.52;;;19.60;72.20;;;20.16;56.58;94727.81;4716037;30;20243;-81
2022/06/07 04:47:29;;;;;;;0.57;0.57;;;19.80;72.30;;;20.29;56.22;94735.34;4728681;30;20311;-80
2022/06/07 04:49:57;;;;;;;0.40;0.40;;;19.90;72.10;;;20.44;56.13;94728.50;4681832;30;20244;-81
2022/06/07 04:52:24;;;;;;;0.40;0.40;;;20.10;72.50;;;20.61;56.14;94738.97;4701162;30;20236;-81
2022/06/07 04:54:54;;;;;;;0.45;0.45;;;20.10;72.60;;;20.73;56.12;94731.59;4699377;30;20616;-81
2022/06/07 04:57:23;;;;;;;0.40;0.40;;;20.30;72.80;;;20.87;56.29;94747.13;4685005;30;20208;-81
2022/06/07 04:59:50;;;;;;;0.40;0.40;;;20.50;73.00;;;20.97;56.34;94741.84;4706105;30;20243;-80
2022/06/07 05:02:19;;;;;;;0.40;0.40;;;20.60;72.90;;;21.09;55.81;94750.41;4716133;30;20215;-81
2022/06/07 05:04:49;;;;;;;0.50;0.50;;;20.60;72.30;;;21.18;55.57;94741.88;4716116;30;20254;-79
2022/06/07 05:07:22;;;;;;;0.40;0.40;;;20.80;71.80;;;21.25;55.22;94745.09;4716180;30;20678;-81
2022/06/07 05:09:55;;;;;;;0.40;0.40;;;20.90;71.30;;;21.34;55.27;94748.84;4715707;30;20228;-81
2022/06/07 05:12:32;;;;;;;0.40;0.40;;;21.00;71.10;;;21.39;54.55;94750.75;4716088;30;20314;-81
2022/06/07 05:15:00;;;;;;;0.40;0.40;;;21.10;70.90;;;21.44;53.99;94754.19;4711783;30;20235;-80
2022/06/07 05:17:33;;;;;;;0.40;0.40;;;21.20;70.50;;;21.51;54.05;94763.84;4700361;30;20302;-80
2022/06/07 05:20:03;;;;;;;0.40;0.40;;;21.20;70.30;;;21.54;54.03;94755.28;4684132;30;20233;-81
2022/06/07 05:22:32;;;;;;;0.40;0.40;;;21.30;70.10;;;21.58;53.97;94761.72;4693576;30;20223;-81
2022/06/07 05:25:09;;;;;;;0.38;0.38;;;21.30;69.90;;;21.63;53.58;94760.94;4692382;30;20286;-80
2022/06/07 05:27:46;;;;;;;0.40;0.40;;;21.40;69.90;;;21.68;53.64;94760.94;4710700;30;20223;-80
2022/06/07 05:30:17;;;;;;;0.40;0.40;;;21.50;70.00;;;21.68;53.79;94764.41;4708157;30;20656;-80
2022/06/07 05:32:49;;;;;;;0.40;0.40;;;21.50;69.80;;;21.72;54.04;94772.69;4712276;30;20241;-79
2022/06/07 05:35:29;;;;;;;0.50;0.50;;;21.50;70.00;;;21.72;53.79;94770.81;4686590;30;20254;-80
2022/06/07 05:38:10;;;;;;;0.50;0.50;;;21.60;70.10;;;21.71;54.24;94779.91;4685269;30;20234;-79
2022/06/07 05:40:39;;;;;;;0.40;0.40;;;21.60;70.00;;;21.70;54.16;94769.50;4682978;30;20265;-81
2022/06/07 05:43:11;;;;;;;0.40;0.40;;;21.60;70.00;;;21.68;53.67;94774.28;4682076;30;20227;-80
2022/06/07 05:45:41;;;;;;;0.47;0.47;;;21.60;69.60;;;21.63;53.56;94779.63;4700589;30;20245;-80
2022/06/07 05:48:18;;;;;;;0.40;0.40;;;21.60;69.40;;;21.56;54.12;94785.19;4712544;30;20276;-81
2022/06/07 05:50:50;;;;;;;0.40;0.40;;;21.70;69.60;;;21.52;53.88;94776.09;4705581;30;20232;-80
2022/06/07 05:53:23;;;;;;;0.40;0.40;;;21.50;69.50;;;21.45;54.05;94776.38;4698878;30;20219;-79
2022/06/07 05:55:51;;;;;;;0.47;0.47;;;21.50;69.40;;;21.46;54.33;94777.97;4685727;30;20257;-78
2022/06/07 05:58:18;;;;;;;0.50;0.50;;;21.50;69.50;;;21.42;54.28;94774.22;4690098;30;20309;-78
2022/06/07 06:00:47;;;;;;;0.40;0.40;;;21.40;69.50;;;21.46;53.98;94779.81;4701334;30;20733;-79
2022/06/07 06:03:19;;;;;;;0.40;0.40;;;21.40;69.60;;;21.46;53.99;94775.31;4708688;30;20228;-79
2022/06/07 06:05:48;;;;;;;0.43;0.43;;;21.40;69.60;;;21.46;53.96;94777.16;4716813;30;20709;-79
2022/06/07 06:11:17;;;;;;;0.40;0.40;;;21.30;69.60;;;21.30;54.49;94776.31;4716404;30;20288;-79
2022/06/07 06:13:55;;;;;;;0.40;0.40;;;21.30;70.00;;;21.22;54.70;94778.44;4713665;30;20271;-78
2022/06/07 06:16:23;;;;;;;0.40;0.40;;;21.20;70.00;;;21.16;54.83;94776.81;4711825;30;20208;-79
2022/06/07 06:18:57;;;;;;;0.40;0.40;;;21.20;70.20;;;21.04;55.16;94785.03;4701761;30;20228;-78
2022/06/07 06:21:39;;;;;;;0.40;0.40;;;21.10;70.20;;;20.96;55.89;94796.22;4729322;30;20299;-78
2022/06/07 06:24:09;;;;;;;0.32;0.32;;;21.00;70.60;;;20.87;55.48;94797.78;4696944;30;20786;-78
2022/06/07 06:26:39;;;;;;;0.43;0.43;;;21.00;70.50;;;20.87;56.10;94805.75;4705049;30;20459;-78
2022/06/07 06:29:10;;;;;;;0.50;0.50;;;21.00;70.90;;;20.86;56.12;94796.16;4723602;30;20209;-78
2022/06/07 06:31:40;;;;;;;0.40;0.40;;;20.90;71.10;;;20.84;56.22;94799.09;4683092;30;20273;-78
2022/06/07 06:34:12;;;;;;;0.40;0.40;;;20.90;71.40;;;20.84;55.86;94796.44;4685905;30;20260;-78
2022/06/07 06:36:40;;;;;;;0.40;0.40;;;20.80;71.50;;;20.84;56.99;94791.09;4683293;30;20300;-78
2022/06/07 06:39:19;;;;;;;0.50;0.50;;;20.80;71.70;;;20.84;56.60;94793.75;4706306;30;20232;-77
2022/06/07 06:41:50;;;;;;;0.50;0.50;;;20.70;71.80;;;20.85;56.89;94798.03;4710902;30;20301;-77
2022/06/07 06:44:23;;;;;;;0.40;0.40;;;20.70;72.30;;;20.83;57.68;94799.34;4705583;30;20240;-77
2022/06/07 06:46:53;;;;;;;0.40;0.40;;;20.70;72.80;;;20.77;57.74;94798.53;4687532;30;20677;-78
2022/06/07 06:49:21;;;;;;;0.50;0.50;;;20.70;72.70;;;20.71;57.96;94794.97;4694103;30;20236;-77
2022/06/07 06:51:49;;;;;;;0.50;0.50;;;20.60;73.10;;;20.71;58.08;94792.31;4683483;30;20251;-78
2022/06/07 06:54:22;;;;;;;0.50;0.50;;;20.60;73.10;;;20.68;58.11;94790.19;4697591;30;20264;-77
2022/06/07 06:56:56;;;;;;;0.40;0.40;;;20.60;73.50;;;20.63;59.14;94790.97;4698631;30;20298;-78
2022/06/07 06:59:27;;;;;;;0.40;0.40;;;20.50;73.40;;;20.64;58.49;94783.75;4691196;30;20253;-79
2022/06/07 07:01:58;;;;;;;0.40;0.40;;;20.60;73.80;;;20.60;58.62;94783.50;4701120;30;20232;-79
2022/06/07 07:04:27;;;;;;;0.40;0.40;;;20.60;74.10;;;20.58;59.02;94788.28;4687394;30;20229;-77
2022/06/07 07:06:57;;;;;;;0.40;0.40;;;20.50;74.00;;;20.58;58.95;94784.78;4697933;30;20291;-78
2022/06/07 07:09:28;;;;;;;0.45;0.45;;;20.50;74.00;;;20.61;58.54;94776.28;4684036;30;20309;-78
2022/06/07 07:12:00;;;;;;;0.40;0.40;;;20.50;74.20;;;20.66;59.07;94784.31;4710712;30;20240;-79
2022/06/07 07:14:34;;;;;;;0.50;0.50;;;20.50;74.70;;;20.69;59.10;94790.97;4688006;30;20224;-80
2022/06/07 07:17:02;;;;;;;0.30;0.30;;;20.50;74.80;;;20.71;59.94;94783.53;4727313;30;20224;-79
2022/06/07 07:19:32;;;;;;;0.40;0.40;;;20.60;74.80;;;20.73;59.80;94786.78;4714066;30;20237;-80
2022/06/07 07:21:59;;;;;;;0.40;0.40;;;20.60;75.00;;;20.74;60.38;94783.84;4710401;30;20700;-80
2022/06/07 07:24:26;;;;;;;0.40;0.40;;;20.60;75.10;;;20.73;60.35;94792.91;4702207;30;20227;-79
2022/06/07 07:27:00;;;;;;;0.43;0.43;;;20.60;75.00;;;20.68;60.51;94794.69;4700020;30;20289;-79
2022/06/07 07:29:29;;;;;;;0.47;0.47;;;20.60;75.20;;;20.63;60.66;94795.50;4701437;30;20730;-79
2022/06/07 07:32:04;;;;;;;0.40;0.40;;;20.60;75.20;;;20.55;61.31;94793.31;4689324;30;20240;-80
2022/06/07 07:34:40;;;;;;;0.40;0.40;;;20.60;75.30;;;20.44;61.49;94806.56;4709861;30;20247;-79
2022/06/07 07:37:10;;;;;;;0.40;0.40;;;20.50;75.70;;;20.41;61.46;94800.94;4685713;30;20617;-79
2022/06/07 07:39:39;;;;;;;0.47;0.47;;;20.40;75.60;;;;;;4701101;30;20322;-79
2022/06/07 07:42:14;;;;;;;0.40;0.40;;;20.40;76.00;;;20.29;62.06;94806.47;4716861;30;20218;-79
2022/06/07 07:44:48;;;;;;;0.40;0.40;;;20.40;76.00;;;20.27;61.90;94806.69;4672426;30;20629;-79
2022/06/07 07:47:17;;;;;;;0.40;0.40;;;20.30;76.00;;;20.26;61.86;94799.78;4703731;30;20208;-80
2022/06/07 07:49:46;;;;;;;0.40;0.40;;;20.30;76.40;;;20.26;61.58;94802.47;4682153;30;20247;-80
2022/06/07 07:52:18;;;;;;;0.45;0.45;;;20.20;76.50;;;20.26;61.79;94806.97;4704093;30;20283;-80
2022/06/07 07:54:53;;;;;;;0.52;0.52;;;20.30;76.60;;;20.28;61.97;94805.66;4698380;30;20319;-80
2022/06/07 07:57:20;;;;;;;0.50;0.50;;;20.20;76.60;;;20.30;61.43;94816.06;4698112;30;20200;-79
2022/06/07 07:59:48;;;;;;;0.40;0.40;;;20.30;76.50;;;20.28;61.83;94810.19;4717529;30;20263;-80
2022/06/07 08:02:21;;;;;;;0.40;0.40;;;20.30;76.70;;;20.27;61.89;94816.56;4700881;30;20208;-80
2022/06/07 08:05:00;;;;;;;0.50;0.50;;;20.20;77.00;;;20.21;63.01;94806.94;4700794;30;20718;-80
2022/06/07 08:07:29;;;;;;;0.40;0.40;;;20.30;77.00;;;20.18;62.09;94810.09;4698384;30;20240;-79
2022/06/07 08:09:56;;;;;;;0.45;0.45;;;20.20;77.10;;;20.13;63.44;94811.66;4702760;30;20244;-78
2022/06/07 08:12:24;;;;;;;0.40;0.40;;;20.10;77.50;;;20.09;63.36;94818.56;4712236;30;20315;-79
2022/06/07 08:14:51;;;;;;;0.50;0.50;;;20.20;77.90;;;20.06;63.20;94823.59;4697978;30;20227;-79
2022/06/07 08:17:18;;;;;;;0.50;0.50;;;20.20;78.00;;;19.96;63.14;94822.44;4692820;30;20212;-79
2022/06/07 08:19:46;;;;;;;0.40;0.40;;;20.00;77.90;;;19.97;63.72;94825.94;4699559;30;20259;-79
2022/06/07 08:22:13;;;;;;;0.40;0.40;;;20.00;78.10;;;19.95;63.67;94834.16;4699717;30;20241;-79
2022/06/07 08:24:40;;;;;;;0.40;0.40;;;19.90;78.10;;;19.90;63.89;94831.44;4687905;30;20227;-79
2022/06/07 08:27:08;;;;;;;0.50;0.50;;;19.90;78.20;;;19.91;64.20;94832.25;4714410;30;20231;-78
2022/06/07 08:29:38;;;;;;;0.50;0.50;;;19.90;78.40;;;19.87;64.09;94834.59;4698219;30;20227;-78
2022/06/07 08:32:06;;;;;;;0.50;0.50;;;19.80;78.70;;;19.86;64.16;94834.84;4690902;30;20243;-79
2022/06/07 08:37:37;;;;;;;0.40;0.40;;;19.90;78.70;;;19.89;63.71;94831.69;4713374;30;20303;-79
2022/06/07 08:40:33;;;;;;;0.50;0.50;;;19.80;78.50;;;19.89;63.47;94834.38;4691460;30;20294;-79
2022/06/07 08:43:11;;;;;;;0.40;0.40;;;19.80;79.90;;;19.90;63.88;94835.97;4672558;30;20226;-79
2022/06/07 08:45:43;;;;;;;0.40;0.40;;;19.80;78.90;;;19.88;63.60;94830.88;4697964;30;20350;-80
2022/06/07 08:48:26;;;;;;;0.40;0.40;;;19.80;78.90;;;19.94;63.93;94835.19;4687513;30;20299;-79
2022/06/07 08:51:23;;;;;;;0.60;0.60;;;19.80;78.80;;;20.00;63.30;94822.75;4678928;30;20777;-79
2022/06/07 08:53:59;;;;;;;0.40;0.40;;;19.90;78.70;;;20.06;63.30;94816.41;4681442;30;20248;-79
2022/06/07 08:56:34;;;;;;;0.40;0.40;;;19.90;78.80;;;20.18;63.47;94802.09;4694205;30;20219;-79
2022/06/07 08:59:14;;;;;;;0.50;0.50;;;20.00;79.50;;;20.27;62.79;94785.41;4691542;30;20267;-79
2022/06/07 09:01:57;;;;;;;0.40;0.40;;;20.00;79.80;;;20.42;62.63;94821.19;4705824;30;20216;-79
2022/06/07 09:04:29;;;;;;;0.40;0.40;;;20.10;79.00;;;20.50;62.47;94838.59;4698656;30;20220;-80
2022/06/07 09:07:03;;;;;;;0.40;0.40;;;20.30;78.70;;;20.53;62.34;94830.88;4715995;30;20215;-79
2022/06/07 09:12:29;;;;;;;0.45;0.45;;;20.40;78.30;;;20.74;61.53;94826.50;4716391;30;20228;-80
2022/06/07 09:14:59;;;;;;;0.40;0.40;;;20.50;78.10;;;20.86;62.21;94828.16;4716073;30;20258;-80
2022/06/07 09:17:52;;;;;;;0.40;0.40;;;20.60;78.40;;;20.97;62.12;94824.50;4716076;30;20559;-80
2022/06/07 09:20:43;;;;;;;0.40;0.40;;;20.70;78.00;;;21.14;61.91;94823.47;4684369;30;20619;-80
2022/06/07 09:23:27;;;;;;;0.40;0.40;;;20.90;78.00;;;21.21;61.35;94810.72;4698660;30;20236;-80
2022/06/07 09:26:12;;;;;;;0.50;0.50;;;21.00;77.50;;;21.35;60.88;94816.34;4697247;30;20264;-80
2022/06/07 09:28:39;;;;;;;0.40;0.40;;;21.10;77.50;;;21.41;60.77;94812.63;4684659;30;20216;-79
2022/06/07 09:31:12;;;;;;;0.40;0.40;;;21.20;77.00;;;21.46;60.76;94812.66;4698348;30;20254;-80
2022/06/07 09:33:56;;;;;;;0.60;0.60;;;21.20;77.00;;;21.45;59.96;94819.06;4688101;30;20227;-79
2022/06/07 09:36:36;;;;;;;0.45;0.45;;;21.30;76.40;;;21.43;60.45;94818.50;4710718;30;20208;-79
2022/06/07 09:39:21;;;;;;;0.40;0.40;;;21.30;76.20;;;21.41;60.23;94823.31;4690977;30;20218;-78
2022/06/07 09:41:53;;;;;;;0.43;0.43;;;21.40;76.10;;;21.44;60.14;94825.47;4688183;30;20222;-78
2022/06/07 09:44:38;;;;;;;0.52;0.52;;;21.40;76.40;;;21.43;60.14;94822.00;4701394;30;20231;-79
2022/06/07 09:47:16;;;;;;;0.50;0.50;;;21.40;76.00;;;21.45;59.62;94829.72;4693358;30;20256;-79
2022/06/07 09:50:07;;;;;;;0.40;0.40;;;21.40;75.70;;;21.41;59.77;94809.97;4702015;30;20653;-78
2022/06/07 09:52:41;;;;;;;0.40;0.40;;;21.40;75.70;;;21.43;59.87;94813.19;4690236;30;20764;-80
2022/06/07 09:55:41;;;;;;;0.40;0.40;;;21.40;75.90;;;21.44;59.81;94802.22;4700513;30;20270;-79
2022/06/07 09:58:50;;;;;;;0.50;0.50;;;21.40;76.10;;;21.52;60.41;94798.28;4680397;30;20526;-80
2022/06/07 10:01:48;;;;;;;0.40;0.40;;;21.50;76.70;;;21.70;60.40;94793.50;4675994;30;20230;-80
2022/06/07 10:04:47;;;;;;;0.40;0.40;;;21.60;76.60;;;21.82;59.90;94790.59;4693073;30;21677;-80
2022/06/07 10:07:37;;;;;;;0.50;0.50;;;21.70;76.30;;;21.85;59.74;94795.38;4690153;30;20242;-80
2022/06/07 10:10:26;;;;;;;0.47;0.47;;;21.80;75.80;;;21.88;59.67;94793.00;4673717;30;20239;-80
2022/06/07 10:13:05;;;;;;;0.47;0.47;;;21.90;75.70;;;21.91;59.33;94792.47;4699815;30;20252;-80
2022/06/07 10:15:40;;;;;;;0.40;0.40;;;21.90;75.30;;;21.97;59.58;94792.47;4675942;30;22017;-81
2022/06/07 10:18:46;;;;;;;0.60;0.60;;;21.90;75.50;;;22.03;59.60;94794.88;4670125;30;20224;-80
2022/06/07 10:22:05;;;;;;;0.40;0.40;;;22.00;75.50;;;22.08;59.15;94796.72;4660935;30;20235;-80
2022/06/07 10:24:50;;;;;;;0.40;0.40;;;22.10;75.30;;;22.18;59.28;94798.59;4669128;30;20584;-78
2022/06/07 10:27:58;;;;;;;0.50;0.50;;;22.10;75.50;;;22.22;58.99;94795.13;4670223;30;20554;-80
2022/06/07 10:31:03;;;;;;;0.40;0.40;;;22.20;75.40;;;22.17;58.81;94794.34;4687301;30;20239;-78
2022/06/07 10:33:55;;;;;;;0.40;0.40;;;22.20;74.80;;;22.10;58.38;94783.94;4677882;30;20241;-78
2022/06/07 10:36:32;;;;;;;0.40;0.40;;;22.20;74.60;;;21.98;59.03;94788.72;4689366;30;20231;-80
2022/06/07 10:39:38;;;;;;;0.40;0.40;;;22.10;74.90;;;21.89;58.91;94799.94;4713105;30;20299;-79
2022/06/07 10:42:24;;;;;;;0.40;0.40;;;22.10;74.70;;;21.78;58.42;94794.88;4693044;30;20295;-78
2022/06/07 10:45:33;;;;;;;0.40;0.40;;;22.00;74.30;;;21.60;59.32;94786.28;4689204;30;20228;-80
2022/06/07 10:48:18;;;;;;;0.45;0.45;;;21.80;74.90;;;21.47;59.30;94795.59;4710119;30;20215;-79
2022/06/07 10:54:49;;;;;;;0.40;0.40;;;21.50;75.20;;;21.17;60.15;94785.63;4692170;30;20241;-79
2022/06/07 10:58:07;;;;;;;0.40;0.40;;;21.40;75.20;;;21.11;60.32;94785.59;4685691;30;20219;-79
2022/06/07 11:00:52;;;;;;;0.40;0.40;;;21.20;75.90;;;21.10;60.20;94772.53;4713878;30;20253;-80
2022/06/07 11:03:42;;;;;;;0.40;0.40;;;21.20;76.40;;;21.17;60.88;94753.63;4693416;30;20573;-80
2022/06/07 11:09:38;;;;;;;0.40;0.40;;;21.30;76.70;;;21.47;60.64;94754.75;4688539;30;20334;-78